sensor_id;sensor_type;location;lat;lon;timestamp;temperature;humidity
67722;SHT31;58309;45.292;11.820;2024-02-28T00:00:26;10.47;99.99
67722;SHT31;58309;45.292;11.820;2024-02-28T00:02:52;10.43;99.99
67722;SHT31;58309;45.292;11.820;2024-02-28T00:05:18;10.53;99.99
67722;SHT31;58309;45.292;11.820;2024-02-28T00:07:44;10.53;99.99
67722;SHT31;58309;45.292;11.820;2024-02-28T00:10:11;10.51;99.99
67722;SHT31;58309;45.292;11.820;2024-02-28T00:12:37;10.50;99.99
67722;SHT31;58309;45.292;11.820;2024-02-28T00:15:05;10.54;99.99
67722;SHT31;58309;45.292;11.820;2024-02-28T00:17:31;10.46;99.99
67722;SHT31;58309;45.292;11.820;2024-02-28T00:19:56;10.42;99.99
67722;SHT31;58309;45.292;11.820;2024-02-28T00:22:22;10.49;99.99
67722;SHT31;58309;45.292;11.820;2024-02-28T00:24:47;10.46;99.99
67722;SHT31;58309;45.292;11.820;2024-02-28T00:27:13;10.44;99.99
67722;SHT31;58309;45.292;11.820;2024-02-28T00:29:39;10.47;99.99
67722;SHT31;58309;45.292;11.820;2024-02-28T00:32:05;10.47;99.99
67722;SHT31;58309;45.292;11.820;2024-02-28T00:34:30;10.46;99.99
67722;SHT31;58309;45.292;11.820;2024-02-28T00:36:56;10.51;99.99
67722;SHT31;58309;45.292;11.820;2024-02-28T00:39:22;10.51;99.99
67722;SHT31;58309;45.292;11.820;2024-02-28T00:41:47;10.53;99.99
67722;SHT31;58309;45.292;11.820;2024-02-28T00:44:13;10.59;99.99
67722;SHT31;58309;45.292;11.820;2024-02-28T00:46:39;10.56;99.99
67722;SHT31;58309;45.292;11.820;2024-02-28T00:49:05;10.56;99.99
67722;SHT31;58309;45.292;11.820;2024-02-28T00:51:32;10.56;99.99
67722;SHT31;58309;45.292;11.820;2024-02-28T00:53:57;10.54;99.99
67722;SHT31;58309;45.292;11.820;2024-02-28T00:56:22;10.60;99.99
67722;SHT31;58309;45.292;11.820;2024-02-28T00:58:49;10.59;99.99
67722;SHT31;58309;45.292;11.820;2024-02-28T01:01:15;10.56;99.99
67722;SHT31;58309;45.292;11.820;2024-02-28T01:03:40;10.53;99.99
67722;SHT31;58309;45.292;11.820;2024-02-28T01:06:06;10.51;99.99
67722;SHT31;58309;45.292;11.820;2024-02-28T01:08:31;10.46;99.99
67722;SHT31;58309;45.292;11.820;2024-02-28T01:10:57;10.49;99.99
67722;SHT31;58309;45.292;11.820;2024-02-28T01:13:24;10.50;99.99
67722;SHT31;58309;45.292;11.820;2024-02-28T01:15:49;10.56;99.99
67722;SHT31;58309;45.292;11.820;2024-02-28T01:18:15;10.50;99.99
67722;SHT31;58309;45.292;11.820;2024-02-28T01:20:40;10.49;99.99
67722;SHT31;58309;45.292;11.820;2024-02-28T01:23:06;10.51;99.99
67722;SHT31;58309;45.292;11.820;2024-02-28T01:25:31;10.53;99.99
67722;SHT31;58309;45.292;11.820;2024-02-28T01:27:57;10.50;99.99
67722;SHT31;58309;45.292;11.820;2024-02-28T01:30:23;10.51;99.99
67722;SHT31;58309;45.292;11.820;2024-02-28T01:32:49;10.51;99.99
67722;SHT31;58309;45.292;11.820;2024-02-28T01:35:14;10.47;99.99
67722;SHT31;58309;45.292;11.820;2024-02-28T01:37:40;10.43;99.99
67722;SHT31;58309;45.292;11.820;2024-02-28T01:40:06;10.44;99.99
67722;SHT31;58309;45.292;11.820;2024-02-28T01:42:31;10.43;99.99
67722;SHT31;58309;45.292;11.820;2024-02-28T01:44:57;10.42;99.99
67722;SHT31;58309;45.292;11.820;2024-02-28T01:47:23;10.42;99.99
67722;SHT31;58309;45.292;11.820;2024-02-28T01:49:49;10.40;99.99
67722;SHT31;58309;45.292;11.820;2024-02-28T01:52:17;10.43;99.99
67722;SHT31;58309;45.292;11.820;2024-02-28T01:54:43;10.44;99.99
67722;SHT31;58309;45.292;11.820;2024-02-28T01:57:09;10.42;99.99
67722;SHT31;58309;45.292;11.820;2024-02-28T01:59:35;10.40;99.99
67722;SHT31;58309;45.292;11.820;2024-02-28T02:02:02;10.39;99.99
67722;SHT31;58309;45.292;11.820;2024-02-28T02:04:27;10.39;99.99
67722;SHT31;58309;45.292;11.820;2024-02-28T02:06:53;10.36;99.99
67722;SHT31;58309;45.292;11.820;2024-02-28T02:09:19;10.36;99.99
67722;SHT31;58309;45.292;11.820;2024-02-28T02:11:45;10.36;99.99
67722;SHT31;58309;45.292;11.820;2024-02-28T02:14:11;10.36;99.99
67722;SHT31;58309;45.292;11.820;2024-02-28T02:16:37;10.33;99.99
67722;SHT31;58309;45.292;11.820;2024-02-28T02:19:03;10.32;99.99
67722;SHT31;58309;45.292;11.820;2024-02-28T02:21:48;10.29;99.99
67722;SHT31;58309;45.292;11.820;2024-02-28T02:24:14;10.33;99.99
67722;SHT31;58309;45.292;11.820;2024-02-28T02:26:40;10.32;99.99
67722;SHT31;58309;45.292;11.820;2024-02-28T02:29:06;10.32;99.99
67722;SHT31;58309;45.292;11.820;2024-02-28T02:31:32;10.30;99.99
67722;SHT31;58309;45.292;11.820;2024-02-28T02:33:59;10.29;99.99
67722;SHT31;58309;45.292;11.820;2024-02-28T02:36:25;10.29;99.99
67722;SHT31;58309;45.292;11.820;2024-02-28T02:38:50;10.30;99.99
67722;SHT31;58309;45.292;11.820;2024-02-28T02:41:16;10.26;99.99
67722;SHT31;58309;45.292;11.820;2024-02-28T02:43:41;10.29;99.99
67722;SHT31;58309;45.292;11.820;2024-02-28T02:46:07;10.29;99.99
67722;SHT31;58309;45.292;11.820;2024-02-28T02:48:32;10.32;99.99
67722;SHT31;58309;45.292;11.820;2024-02-28T02:50:58;10.39;99.99
67722;SHT31;58309;45.292;11.820;2024-02-28T02:53:23;10.40;99.99
67722;SHT31;58309;45.292;11.820;2024-02-28T02:55:49;10.43;99.99
67722;SHT31;58309;45.292;11.820;2024-02-28T02:58:14;10.40;99.99
67722;SHT31;58309;45.292;11.820;2024-02-28T03:00:40;10.37;99.99
67722;SHT31;58309;45.292;11.820;2024-02-28T03:03:05;10.39;99.99
67722;SHT31;58309;45.292;11.820;2024-02-28T03:05:31;10.51;99.99
67722;SHT31;58309;45.292;11.820;2024-02-28T03:07:57;10.50;99.99
67722;SHT31;58309;45.292;11.820;2024-02-28T03:10:23;10.43;99.99
67722;SHT31;58309;45.292;11.820;2024-02-28T03:12:48;10.43;99.99
67722;SHT31;58309;45.292;11.820;2024-02-28T03:15:14;10.42;99.99
67722;SHT31;58309;45.292;11.820;2024-02-28T03:17:39;10.39;99.99
67722;SHT31;58309;45.292;11.820;2024-02-28T03:20:05;10.39;99.99
67722;SHT31;58309;45.292;11.820;2024-02-28T03:22:32;10.39;99.99
67722;SHT31;58309;45.292;11.820;2024-02-28T03:24:58;10.37;99.99
67722;SHT31;58309;45.292;11.820;2024-02-28T03:27:24;10.40;99.99
67722;SHT31;58309;45.292;11.820;2024-02-28T03:29:49;10.40;99.99
67722;SHT31;58309;45.292;11.820;2024-02-28T03:32:15;10.42;99.99
67722;SHT31;58309;45.292;11.820;2024-02-28T03:34:41;10.40;99.99
67722;SHT31;58309;45.292;11.820;2024-02-28T03:37:06;10.40;99.99
67722;SHT31;58309;45.292;11.820;2024-02-28T03:39:32;10.42;99.99
67722;SHT31;58309;45.292;11.820;2024-02-28T03:41:57;10.37;99.99
67722;SHT31;58309;45.292;11.820;2024-02-28T03:44:23;10.39;99.99
67722;SHT31;58309;45.292;11.820;2024-02-28T03:46:48;10.39;99.99
67722;SHT31;58309;45.292;11.820;2024-02-28T03:49:14;10.39;99.99
67722;SHT31;58309;45.292;11.820;2024-02-28T03:51:42;10.39;99.99
67722;SHT31;58309;45.292;11.820;2024-02-28T03:54:08;10.42;99.99
67722;SHT31;58309;45.292;11.820;2024-02-28T03:56:34;10.42;99.99
67722;SHT31;58309;45.292;11.820;2024-02-28T03:59:01;10.43;99.99
67722;SHT31;58309;45.292;11.820;2024-02-28T04:01:26;10.43;99.99
67722;SHT31;58309;45.292;11.820;2024-02-28T04:03:52;10.49;99.99
67722;SHT31;58309;45.292;11.820;2024-02-28T04:06:17;10.49;99.99
67722;SHT31;58309;45.292;11.820;2024-02-28T04:08:43;10.47;99.99
67722;SHT31;58309;45.292;11.820;2024-02-28T04:11:08;10.47;99.99
67722;SHT31;58309;45.292;11.820;2024-02-28T04:13:34;10.47;99.99
67722;SHT31;58309;45.292;11.820;2024-02-28T04:15:59;10.50;99.99
67722;SHT31;58309;45.292;11.820;2024-02-28T04:18:26;10.46;99.99
67722;SHT31;58309;45.292;11.820;2024-02-28T04:20:52;10.49;99.99
67722;SHT31;58309;45.292;11.820;2024-02-28T04:23:18;10.50;99.99
67722;SHT31;58309;45.292;11.820;2024-02-28T04:25:43;10.49;99.99
67722;SHT31;58309;45.292;11.820;2024-02-28T04:28:09;10.51;99.99
67722;SHT31;58309;45.292;11.820;2024-02-28T04:30:34;10.54;99.99
67722;SHT31;58309;45.292;11.820;2024-02-28T04:33:01;10.54;99.99
67722;SHT31;58309;45.292;11.820;2024-02-28T04:35:26;10.51;99.99
67722;SHT31;58309;45.292;11.820;2024-02-28T04:37:52;10.53;99.99
67722;SHT31;58309;45.292;11.820;2024-02-28T04:40:17;10.53;99.99
67722;SHT31;58309;45.292;11.820;2024-02-28T04:42:43;10.54;99.99
67722;SHT31;58309;45.292;11.820;2024-02-28T04:45:09;10.57;99.99
67722;SHT31;58309;45.292;11.820;2024-02-28T04:47:34;10.56;99.99
67722;SHT31;58309;45.292;11.820;2024-02-28T04:50:01;10.56;99.99
67722;SHT31;58309;45.292;11.820;2024-02-28T04:52:27;10.54;99.99
67722;SHT31;58309;45.292;11.820;2024-02-28T04:54:53;10.54;99.99
67722;SHT31;58309;45.292;11.820;2024-02-28T04:57:19;10.53;99.99
67722;SHT31;58309;45.292;11.820;2024-02-28T04:59:44;10.54;99.99
67722;SHT31;58309;45.292;11.820;2024-02-28T05:02:10;10.51;99.99
67722;SHT31;58309;45.292;11.820;2024-02-28T05:04:35;10.57;99.99
67722;SHT31;58309;45.292;11.820;2024-02-28T05:07:01;10.53;99.99
67722;SHT31;58309;45.292;11.820;2024-02-28T05:09:28;10.56;99.99
67722;SHT31;58309;45.292;11.820;2024-02-28T05:11:53;10.56;99.99
67722;SHT31;58309;45.292;11.820;2024-02-28T05:14:19;10.59;99.99
67722;SHT31;58309;45.292;11.820;2024-02-28T05:16:46;10.59;99.99
67722;SHT31;58309;45.292;11.820;2024-02-28T05:19:12;10.54;99.99
67722;SHT31;58309;45.292;11.820;2024-02-28T05:21:44;10.56;99.99
67722;SHT31;58309;45.292;11.820;2024-02-28T05:24:09;10.57;99.99
67722;SHT31;58309;45.292;11.820;2024-02-28T05:26:35;10.54;99.99
67722;SHT31;58309;45.292;11.820;2024-02-28T05:29:02;10.60;99.99
67722;SHT31;58309;45.292;11.820;2024-02-28T05:31:28;10.57;99.99
67722;SHT31;58309;45.292;11.820;2024-02-28T05:33:55;10.57;99.99
67722;SHT31;58309;45.292;11.820;2024-02-28T05:36:26;10.57;99.99
67722;SHT31;58309;45.292;11.820;2024-02-28T05:38:54;10.57;99.99
67722;SHT31;58309;45.292;11.820;2024-02-28T05:41:20;10.57;99.99
67722;SHT31;58309;45.292;11.820;2024-02-28T05:43:47;10.60;99.99
67722;SHT31;58309;45.292;11.820;2024-02-28T05:46:14;10.59;99.99
67722;SHT31;58309;45.292;11.820;2024-02-28T05:48:43;10.56;99.99
67722;SHT31;58309;45.292;11.820;2024-02-28T05:51:10;10.60;99.99
67722;SHT31;58309;45.292;11.820;2024-02-28T05:53:36;10.61;99.99
67722;SHT31;58309;45.292;11.820;2024-02-28T05:56:07;10.57;99.99
67722;SHT31;58309;45.292;11.820;2024-02-28T05:58:40;10.59;99.99
67722;SHT31;58309;45.292;11.820;2024-02-28T06:01:06;10.60;99.99
67722;SHT31;58309;45.292;11.820;2024-02-28T06:03:32;10.61;99.99
67722;SHT31;58309;45.292;11.820;2024-02-28T06:05:58;10.61;99.99
67722;SHT31;58309;45.292;11.820;2024-02-28T06:08:24;10.63;99.99
67722;SHT31;58309;45.292;11.820;2024-02-28T06:10:49;10.63;99.99
67722;SHT31;58309;45.292;11.820;2024-02-28T06:13:17;10.63;99.99
67722;SHT31;58309;45.292;11.820;2024-02-28T06:15:43;10.65;99.99
67722;SHT31;58309;45.292;11.820;2024-02-28T06:18:09;10.68;99.99
67722;SHT31;58309;45.292;11.820;2024-02-28T06:20:34;10.67;99.99
67722;SHT31;58309;45.292;11.820;2024-02-28T06:23:00;10.70;99.99
67722;SHT31;58309;45.292;11.820;2024-02-28T06:25:25;10.71;99.99
67722;SHT31;58309;45.292;11.820;2024-02-28T06:27:53;10.70;99.99
67722;SHT31;58309;45.292;11.820;2024-02-28T06:30:19;10.74;99.99
67722;SHT31;58309;45.292;11.820;2024-02-28T06:32:44;10.73;99.99
67722;SHT31;58309;45.292;11.820;2024-02-28T06:35:10;10.75;99.99
67722;SHT31;58309;45.292;11.820;2024-02-28T06:37:36;10.71;99.99
67722;SHT31;58309;45.292;11.820;2024-02-28T06:40:06;10.75;99.99
67722;SHT31;58309;45.292;11.820;2024-02-28T06:42:35;10.75;99.99
67722;SHT31;58309;45.292;11.820;2024-02-28T06:45:04;10.80;99.99
67722;SHT31;58309;45.292;11.820;2024-02-28T06:47:30;10.82;99.99
67722;SHT31;58309;45.292;11.820;2024-02-28T06:49:57;10.80;99.99
67722;SHT31;58309;45.292;11.820;2024-02-28T06:52:23;10.82;99.99
67722;SHT31;58309;45.292;11.820;2024-02-28T06:54:49;10.82;99.99
67722;SHT31;58309;45.292;11.820;2024-02-28T06:57:14;10.84;99.99
67722;SHT31;58309;45.292;11.820;2024-02-28T06:59:40;10.91;99.99
67722;SHT31;58309;45.292;11.820;2024-02-28T07:02:05;10.91;99.99
67722;SHT31;58309;45.292;11.820;2024-02-28T07:04:31;10.92;99.99
67722;SHT31;58309;45.292;11.820;2024-02-28T07:06:57;10.97;99.99
67722;SHT31;58309;45.292;11.820;2024-02-28T07:09:23;10.98;99.99
67722;SHT31;58309;45.292;11.820;2024-02-28T07:11:51;10.95;99.99
67722;SHT31;58309;45.292;11.820;2024-02-28T07:14:16;11.00;99.99
67722;SHT31;58309;45.292;11.820;2024-02-28T07:16:42;10.95;99.99
67722;SHT31;58309;45.292;11.820;2024-02-28T07:19:08;10.98;99.99
67722;SHT31;58309;45.292;11.820;2024-02-28T07:21:35;10.97;99.99
67722;SHT31;58309;45.292;11.820;2024-02-28T07:24:02;10.91;99.99
67722;SHT31;58309;45.292;11.820;2024-02-28T07:26:30;10.95;99.99
67722;SHT31;58309;45.292;11.820;2024-02-28T07:28:55;10.98;99.99
67722;SHT31;58309;45.292;11.820;2024-02-28T07:31:21;10.95;99.99
67722;SHT31;58309;45.292;11.820;2024-02-28T07:33:47;10.98;99.99
67722;SHT31;58309;45.292;11.820;2024-02-28T07:36:13;10.97;99.99
67722;SHT31;58309;45.292;11.820;2024-02-28T07:38:41;10.98;99.99
67722;SHT31;58309;45.292;11.820;2024-02-28T07:41:07;10.98;99.99
67722;SHT31;58309;45.292;11.820;2024-02-28T07:43:32;10.95;99.99
67722;SHT31;58309;45.292;11.820;2024-02-28T07:46:06;10.95;99.99
67722;SHT31;58309;45.292;11.820;2024-02-28T07:48:31;10.94;99.99
67722;SHT31;58309;45.292;11.820;2024-02-28T07:50:57;10.92;99.99
67722;SHT31;58309;45.292;11.820;2024-02-28T07:53:22;10.92;99.99
67722;SHT31;58309;45.292;11.820;2024-02-28T07:55:48;10.91;99.99
67722;SHT31;58309;45.292;11.820;2024-02-28T07:58:14;10.90;99.99
67722;SHT31;58309;45.292;11.820;2024-02-28T08:00:42;10.84;99.99
67722;SHT31;58309;45.292;11.820;2024-02-28T08:03:09;10.85;99.99
67722;SHT31;58309;45.292;11.820;2024-02-28T08:05:35;10.81;99.99
67722;SHT31;58309;45.292;11.820;2024-02-28T08:08:07;10.75;99.99
67722;SHT31;58309;45.292;11.820;2024-02-28T08:10:33;10.77;99.99
67722;SHT31;58309;45.292;11.820;2024-02-28T08:13:01;10.77;99.99
67722;SHT31;58309;45.292;11.820;2024-02-28T08:15:26;10.78;99.99
67722;SHT31;58309;45.292;11.820;2024-02-28T08:17:52;10.80;99.99
67722;SHT31;58309;45.292;11.820;2024-02-28T08:20:18;10.85;99.99
67722;SHT31;58309;45.292;11.820;2024-02-28T08:22:44;10.84;99.99
67722;SHT31;58309;45.292;11.820;2024-02-28T08:25:09;10.84;99.99
67722;SHT31;58309;45.292;11.820;2024-02-28T08:27:37;10.88;99.99
67722;SHT31;58309;45.292;11.820;2024-02-28T08:30:06;10.88;99.99
67722;SHT31;58309;45.292;11.820;2024-02-28T08:32:32;10.87;99.99
67722;SHT31;58309;45.292;11.820;2024-02-28T08:34:58;10.90;99.99
67722;SHT31;58309;45.292;11.820;2024-02-28T08:37:24;10.90;99.99
67722;SHT31;58309;45.292;11.820;2024-02-28T08:39:50;10.94;99.99
67722;SHT31;58309;45.292;11.820;2024-02-28T08:42:15;10.94;99.99
67722;SHT31;58309;45.292;11.820;2024-02-28T08:44:41;10.95;99.99
67722;SHT31;58309;45.292;11.820;2024-02-28T08:47:06;10.98;99.99
67722;SHT31;58309;45.292;11.820;2024-02-28T08:49:38;11.00;99.99
67722;SHT31;58309;45.292;11.820;2024-02-28T08:52:04;10.97;99.99
67722;SHT31;58309;45.292;11.820;2024-02-28T08:54:29;10.98;99.99
67722;SHT31;58309;45.292;11.820;2024-02-28T08:56:55;10.98;99.99
67722;SHT31;58309;45.292;11.820;2024-02-28T08:59:21;10.95;99.99
67722;SHT31;58309;45.292;11.820;2024-02-28T09:01:48;10.95;99.99
67722;SHT31;58309;45.292;11.820;2024-02-28T09:04:13;10.95;99.99
67722;SHT31;58309;45.292;11.820;2024-02-28T09:06:39;10.97;99.99
67722;SHT31;58309;45.292;11.820;2024-02-28T09:09:05;10.94;99.99
67722;SHT31;58309;45.292;11.820;2024-02-28T09:11:30;10.97;99.99
67722;SHT31;58309;45.292;11.820;2024-02-28T09:13:56;10.98;99.99
67722;SHT31;58309;45.292;11.820;2024-02-28T09:16:21;11.01;99.99
67722;SHT31;58309;45.292;11.820;2024-02-28T09:18:47;11.00;99.99
67722;SHT31;58309;45.292;11.820;2024-02-28T09:21:12;11.07;99.99
67722;SHT31;58309;45.292;11.820;2024-02-28T09:23:38;11.10;99.99
67722;SHT31;58309;45.292;11.820;2024-02-28T09:26:04;11.15;99.99
67722;SHT31;58309;45.292;11.820;2024-02-28T09:28:30;11.21;99.99
67722;SHT31;58309;45.292;11.820;2024-02-28T09:30:56;11.14;99.99
67722;SHT31;58309;45.292;11.820;2024-02-28T09:33:22;11.14;99.99
67722;SHT31;58309;45.292;11.820;2024-02-28T09:35:48;11.18;99.99
67722;SHT31;58309;45.292;11.820;2024-02-28T09:38:14;11.11;99.99
67722;SHT31;58309;45.292;11.820;2024-02-28T09:40:40;11.08;99.99
67722;SHT31;58309;45.292;11.820;2024-02-28T09:43:11;11.05;99.99
67722;SHT31;58309;45.292;11.820;2024-02-28T09:45:40;11.04;99.99
67722;SHT31;58309;45.292;11.820;2024-02-28T09:48:07;11.10;99.99
67722;SHT31;58309;45.292;11.820;2024-02-28T09:53:12;11.18;99.99
67722;SHT31;58309;45.292;11.820;2024-02-28T09:55:37;11.21;99.99
67722;SHT31;58309;45.292;11.820;2024-02-28T09:58:03;11.26;99.99
67722;SHT31;58309;45.292;11.820;2024-02-28T10:00:29;11.38;99.99
67722;SHT31;58309;45.292;11.820;2024-02-28T10:02:56;11.33;99.99
67722;SHT31;58309;45.292;11.820;2024-02-28T10:05:22;11.35;99.99
67722;SHT31;58309;45.292;11.820;2024-02-28T10:07:52;11.39;99.99
67722;SHT31;58309;45.292;11.820;2024-02-28T10:10:18;11.52;99.99
67722;SHT31;58309;45.292;11.820;2024-02-28T10:12:44;11.49;99.99
67722;SHT31;58309;45.292;11.820;2024-02-28T10:15:10;11.51;99.99
67722;SHT31;58309;45.292;11.820;2024-02-28T10:17:36;11.47;99.99
67722;SHT31;58309;45.292;11.820;2024-02-28T10:20:02;11.46;99.99
67722;SHT31;58309;45.292;11.820;2024-02-28T10:22:38;11.51;99.99
67722;SHT31;58309;45.292;11.820;2024-02-28T10:25:04;11.47;99.99
67722;SHT31;58309;45.292;11.820;2024-02-28T10:27:33;11.47;99.99
67722;SHT31;58309;45.292;11.820;2024-02-28T10:30:00;11.44;99.99
67722;SHT31;58309;45.292;11.820;2024-02-28T10:32:30;11.46;99.99
67722;SHT31;58309;45.292;11.820;2024-02-28T10:34:56;11.49;99.99
67722;SHT31;58309;45.292;11.820;2024-02-28T10:37:23;11.42;99.99
67722;SHT31;58309;45.292;11.820;2024-02-28T10:39:51;11.42;99.99
67722;SHT31;58309;45.292;11.820;2024-02-28T10:42:18;11.36;99.99
67722;SHT31;58309;45.292;11.820;2024-02-28T10:44:47;11.28;99.99
67722;SHT31;58309;45.292;11.820;2024-02-28T10:47:17;11.25;99.99
67722;SHT31;58309;45.292;11.820;2024-02-28T10:49:43;11.22;99.99
67722;SHT31;58309;45.292;11.820;2024-02-28T10:52:12;11.16;99.99
67722;SHT31;58309;45.292;11.820;2024-02-28T10:54:40;11.18;99.99
67722;SHT31;58309;45.292;11.820;2024-02-28T10:57:08;11.21;99.99
67722;SHT31;58309;45.292;11.820;2024-02-28T10:59:35;11.18;99.99
67722;SHT31;58309;45.292;11.820;2024-02-28T11:02:02;11.19;99.99
67722;SHT31;58309;45.292;11.820;2024-02-28T11:04:28;11.21;99.99
67722;SHT31;58309;45.292;11.820;2024-02-28T11:06:56;11.21;99.99
67722;SHT31;58309;45.292;11.820;2024-02-28T11:09:25;11.26;99.99
67722;SHT31;58309;45.292;11.820;2024-02-28T11:11:52;11.28;99.99
67722;SHT31;58309;45.292;11.820;2024-02-28T11:14:18;11.32;99.99
67722;SHT31;58309;45.292;11.820;2024-02-28T11:16:47;11.39;99.99
67722;SHT31;58309;45.292;11.820;2024-02-28T11:19:20;11.43;99.99
67722;SHT31;58309;45.292;11.820;2024-02-28T11:21:54;11.49;99.99
67722;SHT31;58309;45.292;11.820;2024-02-28T11:24:23;11.43;99.99
67722;SHT31;58309;45.292;11.820;2024-02-28T11:26:50;11.44;99.99
67722;SHT31;58309;45.292;11.820;2024-02-28T11:29:16;11.43;99.99
67722;SHT31;58309;45.292;11.820;2024-02-28T11:31:41;11.43;99.99
67722;SHT31;58309;45.292;11.820;2024-02-28T11:34:08;11.39;99.99
67722;SHT31;58309;45.292;11.820;2024-02-28T11:36:33;11.40;99.99
67722;SHT31;58309;45.292;11.820;2024-02-28T11:38:59;11.40;99.99
67722;SHT31;58309;45.292;11.820;2024-02-28T11:41:26;11.42;99.99
67722;SHT31;58309;45.292;11.820;2024-02-28T11:43:54;11.40;99.99
67722;SHT31;58309;45.292;11.820;2024-02-28T11:46:20;11.44;99.99
67722;SHT31;58309;45.292;11.820;2024-02-28T11:48:45;11.47;99.99
67722;SHT31;58309;45.292;11.820;2024-02-28T11:51:11;11.42;99.99
67722;SHT31;58309;45.292;11.820;2024-02-28T11:53:36;11.49;99.99
67722;SHT31;58309;45.292;11.820;2024-02-28T11:56:02;11.53;99.99
67722;SHT31;58309;45.292;11.820;2024-02-28T11:58:28;11.56;99.99
67722;SHT31;58309;45.292;11.820;2024-02-28T12:00:54;11.62;99.99
67722;SHT31;58309;45.292;11.820;2024-02-28T12:03:23;11.56;99.99
67722;SHT31;58309;45.292;11.820;2024-02-28T12:05:49;11.59;99.99
67722;SHT31;58309;45.292;11.820;2024-02-28T12:08:17;11.56;99.99
67722;SHT31;58309;45.292;11.820;2024-02-28T12:10:43;11.56;99.99
67722;SHT31;58309;45.292;11.820;2024-02-28T12:13:09;11.52;99.99
67722;SHT31;58309;45.292;11.820;2024-02-28T12:15:35;11.51;99.99
67722;SHT31;58309;45.292;11.820;2024-02-28T12:18:07;11.51;99.99
67722;SHT31;58309;45.292;11.820;2024-02-28T12:20:33;11.58;99.99
67722;SHT31;58309;45.292;11.820;2024-02-28T12:22:59;11.55;99.99
67722;SHT31;58309;45.292;11.820;2024-02-28T12:25:24;11.53;99.99
67722;SHT31;58309;45.292;11.820;2024-02-28T12:27:49;11.47;99.99
67722;SHT31;58309;45.292;11.820;2024-02-28T12:30:15;11.49;99.99
67722;SHT31;58309;45.292;11.820;2024-02-28T12:32:40;11.51;99.99
67722;SHT31;58309;45.292;11.820;2024-02-28T12:35:06;11.52;99.99
67722;SHT31;58309;45.292;11.820;2024-02-28T12:37:32;11.52;99.99
67722;SHT31;58309;45.292;11.820;2024-02-28T12:39:57;11.58;99.99
67722;SHT31;58309;45.292;11.820;2024-02-28T12:42:23;11.63;99.99
67722;SHT31;58309;45.292;11.820;2024-02-28T12:44:48;11.60;99.99
67722;SHT31;58309;45.292;11.820;2024-02-28T12:47:14;11.66;99.99
67722;SHT31;58309;45.292;11.820;2024-02-28T12:49:39;11.67;99.99
67722;SHT31;58309;45.292;11.820;2024-02-28T12:52:05;11.69;99.99
67722;SHT31;58309;45.292;11.820;2024-02-28T12:54:30;11.70;99.99
67722;SHT31;58309;45.292;11.820;2024-02-28T12:56:56;11.69;99.99
67722;SHT31;58309;45.292;11.820;2024-02-28T12:59:22;11.80;99.99
67722;SHT31;58309;45.292;11.820;2024-02-28T13:01:47;11.80;99.99
67722;SHT31;58309;45.292;11.820;2024-02-28T13:04:13;11.87;99.99
67722;SHT31;58309;45.292;11.820;2024-02-28T13:06:38;11.91;99.99
67722;SHT31;58309;45.292;11.820;2024-02-28T13:09:05;12.04;99.99
67722;SHT31;58309;45.292;11.820;2024-02-28T13:11:32;12.11;99.99
67722;SHT31;58309;45.292;11.820;2024-02-28T13:13:58;12.14;99.99
67722;SHT31;58309;45.292;11.820;2024-02-28T13:16:23;12.08;99.99
67722;SHT31;58309;45.292;11.820;2024-02-28T13:18:49;12.17;99.99
67722;SHT31;58309;45.292;11.820;2024-02-28T13:21:14;12.13;99.99
67722;SHT31;58309;45.292;11.820;2024-02-28T13:23:40;12.18;99.99
67722;SHT31;58309;45.292;11.820;2024-02-28T13:26:06;12.16;99.99
67722;SHT31;58309;45.292;11.820;2024-02-28T13:28:32;12.10;99.99
67722;SHT31;58309;45.292;11.820;2024-02-28T13:31:02;12.07;99.99
67722;SHT31;58309;45.292;11.820;2024-02-28T13:33:29;12.07;99.99
67722;SHT31;58309;45.292;11.820;2024-02-28T13:35:54;12.03;99.99
67722;SHT31;58309;45.292;11.820;2024-02-28T13:38:20;11.98;99.99
67722;SHT31;58309;45.292;11.820;2024-02-28T13:40:49;12.03;99.99
67722;SHT31;58309;45.292;11.820;2024-02-28T13:43:15;12.14;99.99
67722;SHT31;58309;45.292;11.820;2024-02-28T13:45:46;12.28;99.99
67722;SHT31;58309;45.292;11.820;2024-02-28T13:48:19;12.51;99.99
67722;SHT31;58309;45.292;11.820;2024-02-28T13:50:52;12.54;99.99
67722;SHT31;58309;45.292;11.820;2024-02-28T13:53:18;12.66;99.99
67722;SHT31;58309;45.292;11.820;2024-02-28T13:55:44;12.72;99.99
67722;SHT31;58309;45.292;11.820;2024-02-28T13:58:13;12.88;99.99
67722;SHT31;58309;45.292;11.820;2024-02-28T14:00:40;12.89;99.99
67722;SHT31;58309;45.292;11.820;2024-02-28T14:03:07;12.81;99.99
67722;SHT31;58309;45.292;11.820;2024-02-28T14:05:32;12.69;99.99
67722;SHT31;58309;45.292;11.820;2024-02-28T14:07:58;12.83;99.99
67722;SHT31;58309;45.292;11.820;2024-02-28T14:10:24;12.85;99.99
67722;SHT31;58309;45.292;11.820;2024-02-28T14:12:50;12.95;99.99
67722;SHT31;58309;45.292;11.820;2024-02-28T14:15:18;12.92;99.99
67722;SHT31;58309;45.292;11.820;2024-02-28T14:17:44;12.97;99.99
67722;SHT31;58309;45.292;11.820;2024-02-28T14:20:10;12.96;99.99
67722;SHT31;58309;45.292;11.820;2024-02-28T14:22:35;12.97;99.99
67722;SHT31;58309;45.292;11.820;2024-02-28T14:25:00;13.00;99.99
67722;SHT31;58309;45.292;11.820;2024-02-28T14:27:26;13.04;99.99
67722;SHT31;58309;45.292;11.820;2024-02-28T14:29:55;13.02;99.99
67722;SHT31;58309;45.292;11.820;2024-02-28T14:32:21;12.99;99.99
67722;SHT31;58309;45.292;11.820;2024-02-28T14:34:47;13.02;99.99
67722;SHT31;58309;45.292;11.820;2024-02-28T14:37:14;13.00;99.99
67722;SHT31;58309;45.292;11.820;2024-02-28T14:39:39;13.02;99.99
67722;SHT31;58309;45.292;11.820;2024-02-28T14:42:05;13.04;99.99
67722;SHT31;58309;45.292;11.820;2024-02-28T14:44:34;13.07;99.99
67722;SHT31;58309;45.292;11.820;2024-02-28T14:46:59;13.12;99.99
67722;SHT31;58309;45.292;11.820;2024-02-28T14:49:25;13.20;99.99
67722;SHT31;58309;45.292;11.820;2024-02-28T14:51:50;13.23;99.99
67722;SHT31;58309;45.292;11.820;2024-02-28T14:54:16;13.19;99.99
67722;SHT31;58309;45.292;11.820;2024-02-28T14:56:42;13.14;99.99
67722;SHT31;58309;45.292;11.820;2024-02-28T14:59:08;13.17;99.99
67722;SHT31;58309;45.292;11.820;2024-02-28T15:01:33;13.22;99.99
67722;SHT31;58309;45.292;11.820;2024-02-28T15:03:59;13.24;99.99
67722;SHT31;58309;45.292;11.820;2024-02-28T15:06:24;13.20;99.99
67722;SHT31;58309;45.292;11.820;2024-02-28T15:08:50;13.26;99.99
67722;SHT31;58309;45.292;11.820;2024-02-28T15:11:15;13.22;99.99